Time;durP1;ratioP1;P1;durP2;ratioP2;P2;SDS_P1;SDS_P2;PMS_P1;PMS_P2;Temp;Humidity;BMP_temperature;BMP_pressure;BME280_temperature;BME280_humidity;BME280_pressure;Samples;Min_cycle;Max_cycle;Signal;HPM_P1;HPM_P2
2023/07/13 00:00:22;;;;;;;8.53;2.77;;;;;;;;;;5137101;27;20548;-63
2023/07/13 00:02:48;;;;;;;4.40;2.33;;;;;;;;;;5132610;27;20457;-63
2023/07/13 00:05:15;;;;;;;7.13;2.30;;;;;;;;;;5135527;27;20477;-62
2023/07/13 00:07:46;;;;;;;5.47;2.50;;;;;;;;;;5141126;27;20453;-63
2023/07/13 00:10:12;;;;;;;4.63;2.80;;;;;;;;;;5134956;27;20437;-63
2023/07/13 00:12:39;;;;;;;4.80;2.80;;;;;;;;;;5133670;27;20542;-63
2023/07/13 00:15:07;;;;;;;3.40;2.90;;;;;;;;;;5134479;27;20505;-63
2023/07/13 00:17:35;;;;;;;4.70;3.10;;;;;;;;;;5127261;27;20520;-63
2023/07/13 00:20:02;;;;;;;6.63;2.90;;;;;;;;;;5139832;27;20484;-63
2023/07/13 00:22:28;;;;;;;6.93;2.50;;;;;;;;;;5141869;27;20454;-63
2023/07/13 00:24:56;;;;;;;5.10;2.83;;;;;;;;;;5135558;27;20476;-63
2023/07/13 00:27:22;;;;;;;5.50;2.50;;;;;;;;;;5147911;27;20457;-63
2023/07/13 00:29:48;;;;;;;7.30;3.13;;;;;;;;;;5137429;27;20469;-64
2023/07/13 00:32:15;;;;;;;4.90;2.57;;;;;;;;;;5136696;27;20453;-63
2023/07/13 00:34:43;;;;;;;4.10;2.77;;;;;;;;;;5136483;27;20543;-63
2023/07/13 00:37:09;;;;;;;4.20;2.67;;;;;;;;;;5130472;27;20485;-63
2023/07/13 00:39:36;;;;;;;3.17;2.57;;;;;;;;;;5135778;27;20568;-63
2023/07/13 00:42:04;;;;;;;4.60;2.97;;;;;;;;;;5133646;27;21001;-62
2023/07/13 00:44:30;;;;;;;4.70;2.63;;;;;;;;;;5140780;27;20457;-61
2023/07/13 00:46:58;;;;;;;5.40;2.60;;;;;;;;;;5126387;27;20870;-61
2023/07/13 00:49:26;;;;;;;7.70;2.77;;;;;;;;;;5127997;27;20478;-61
2023/07/13 00:51:55;;;;;;;5.53;2.83;;;;;;;;;;5141020;27;20521;-62
2023/07/13 00:54:23;;;;;;;6.70;2.70;;;;;;;;;;5136424;27;20462;-61
2023/07/13 00:56:50;;;;;;;5.10;2.47;;;;;;;;;;5141187;27;20532;-62
2023/07/13 00:59:18;;;;;;;7.10;2.40;;;;;;;;;;5125064;27;20458;-62
2023/07/13 01:01:45;;;;;;;7.20;2.97;;;;;;;;;;5135711;27;20961;-63
2023/07/13 01:04:11;;;;;;;5.10;3.00;;;;;;;;;;5137031;27;20556;-62
2023/07/13 01:06:38;;;;;;;6.83;2.60;;;;;;;;;;5138169;27;20505;-63
2023/07/13 01:09:07;;;;;;;9.37;2.70;;;;;;;;;;5136861;27;21045;-63
2023/07/13 01:11:34;;;;;;;11.13;3.10;;;;;;;;;;5132820;27;20969;-63
2023/07/13 01:14:02;;;;;;;7.70;3.23;;;;;;;;;;5134741;27;20458;-63
2023/07/13 01:16:29;;;;;;;4.63;2.70;;;;;;;;;;5126092;27;20523;-63
2023/07/13 01:18:57;;;;;;;8.30;2.80;;;;;;;;;;5129630;27;20579;-62
2023/07/13 01:21:25;;;;;;;8.07;2.93;;;;;;;;;;5128291;27;20466;-63
2023/07/13 01:23:52;;;;;;;6.43;2.40;;;;;;;;;;5133230;27;20599;-63
2023/07/13 01:26:18;;;;;;;4.73;2.67;;;;;;;;;;5134217;27;20895;-63
2023/07/13 01:28:45;;;;;;;6.50;3.33;;;;;;;;;;5135166;27;21006;-63
2023/07/13 01:31:12;;;;;;;5.20;2.63;;;;;;;;;;5139927;27;21096;-63
2023/07/13 01:33:39;;;;;;;5.90;2.30;;;;;;;;;;5138422;27;20543;-63
2023/07/13 01:36:05;;;;;;;6.50;2.37;;;;;;;;;;5130175;27;20474;-63
2023/07/13 01:38:34;;;;;;;4.77;2.97;;;;;;;;;;5144297;27;20836;-63
2023/07/13 01:41:00;;;;;;;4.93;2.70;;;;;;;;;;5133074;27;20489;-63
2023/07/13 01:43:27;;;;;;;7.33;3.03;;;;;;;;;;5127973;27;21235;-62
2023/07/13 01:45:53;;;;;;;8.77;3.47;;;;;;;;;;5128726;27;20473;-62
2023/07/13 01:48:20;;;;;;;4.40;2.80;;;;;;;;;;5124367;27;20465;-62
2023/07/13 01:50:46;;;;;;;5.13;2.70;;;;;;;;;;5126951;27;20492;-63
2023/07/13 01:53:13;;;;;;;5.63;3.13;;;;;;;;;;5129984;27;20482;-63
2023/07/13 01:55:40;;;;;;;5.40;2.90;;;;;;;;;;5140285;27;20508;-62
2023/07/13 01:58:07;;;;;;;5.50;3.20;;;;;;;;;;5135068;27;20481;-62
2023/07/13 02:00:33;;;;;;;6.70;3.40;;;;;;;;;;5129374;27;20445;-62
2023/07/13 02:03:00;;;;;;;6.93;3.03;;;;;;;;;;5126121;27;20544;-62
2023/07/13 02:05:26;;;;;;;8.20;3.20;;;;;;;;;;5134195;28;20469;-62
2023/07/13 02:07:53;;;;;;;5.83;3.50;;;;;;;;;;5135115;28;21003;-62
2023/07/13 02:10:19;;;;;;;5.60;2.90;;;;;;;;;;5132396;27;20448;-62
2023/07/13 02:12:49;;;;;;;14.90;3.63;;;;;;;;;;5131657;28;20969;-62
2023/07/13 02:15:15;;;;;;;8.80;3.30;;;;;;;;;;5136876;27;20560;-62
2023/07/13 02:17:42;;;;;;;5.73;3.10;;;;;;;;;;5140396;27;20545;-63
2023/07/13 02:20:09;;;;;;;6.53;3.00;;;;;;;;;;5140012;27;20492;-62
2023/07/13 02:22:36;;;;;;;5.60;3.10;;;;;;;;;;5139979;28;20453;-62
2023/07/13 02:25:02;;;;;;;5.53;3.50;;;;;;;;;;5137693;27;20469;-62
2023/07/13 02:27:29;;;;;;;10.23;4.07;;;;;;;;;;5125946;27;20481;-62
2023/07/13 02:29:56;;;;;;;4.97;3.47;;;;;;;;;;5133583;28;20489;-61
2023/07/13 02:32:24;;;;;;;5.00;3.30;;;;;;;;;;5118420;27;20576;-62
2023/07/13 02:34:51;;;;;;;6.07;3.60;;;;;;;;;;5146752;27;20464;-62
2023/07/13 02:37:17;;;;;;;13.20;3.73;;;;;;;;;;5133793;27;20556;-62
2023/07/13 02:39:44;;;;;;;7.60;3.63;;;;;;;;;;5133937;28;20488;-62
2023/07/13 02:42:10;;;;;;;9.83;3.80;;;;;;;;;;5139601;27;20445;-62
2023/07/13 02:44:36;;;;;;;7.70;3.73;;;;;;;;;;5132608;28;20548;-63
2023/07/13 02:47:04;;;;;;;8.17;3.43;;;;;;;;;;5137976;28;20464;-62
2023/07/13 02:49:31;;;;;;;6.60;3.00;;;;;;;;;;5125574;28;20847;-62
2023/07/13 02:51:57;;;;;;;5.00;3.33;;;;;;;;;;5128677;27;20473;-62
2023/07/13 02:54:23;;;;;;;5.77;2.77;;;;;;;;;;5136691;27;20549;-62
2023/07/13 02:56:50;;;;;;;8.90;3.40;;;;;;;;;;5137763;27;21067;-62
2023/07/13 02:59:16;;;;;;;8.73;2.60;;;;;;;;;;5144259;27;20468;-62
2023/07/13 03:01:42;;;;;;;7.07;3.40;;;;;;;;;;5128282;27;20492;-61
2023/07/13 03:04:10;;;;;;;6.10;3.37;;;;;;;;;;5142386;27;20492;-61
2023/07/13 03:06:37;;;;;;;10.43;3.37;;;;;;;;;;5136493;27;20480;-62
2023/07/13 03:09:03;;;;;;;10.93;3.57;;;;;;;;;;5141409;27;20507;-62
2023/07/13 03:11:30;;;;;;;10.67;4.43;;;;;;;;;;5135975;27;20498;-62
2023/07/13 03:13:56;;;;;;;5.27;3.00;;;;;;;;;;5137891;27;20539;-62
2023/07/13 03:16:23;;;;;;;7.53;3.10;;;;;;;;;;5138261;27;20509;-62
2023/07/13 03:18:49;;;;;;;6.80;3.37;;;;;;;;;;5142904;27;20476;-62
2023/07/13 03:21:17;;;;;;;7.10;3.20;;;;;;;;;;5140620;27;20525;-63
2023/07/13 03:23:43;;;;;;;10.43;4.40;;;;;;;;;;5132317;27;20521;-62
2023/07/13 03:26:12;;;;;;;5.47;3.27;;;;;;;;;;5138924;27;20461;-63
2023/07/13 03:28:39;;;;;;;13.60;3.50;;;;;;;;;;5142639;27;20458;-63
2023/07/13 03:31:06;;;;;;;13.77;3.80;;;;;;;;;;5141974;27;20464;-62
2023/07/13 03:33:33;;;;;;;9.37;3.10;;;;;;;;;;5122138;27;20455;-62
2023/07/13 03:35:59;;;;;;;10.23;4.07;;;;;;;;;;5136457;27;20544;-63
2023/07/13 03:38:27;;;;;;;8.70;3.03;;;;;;;;;;5135454;27;20480;-62
2023/07/13 03:40:54;;;;;;;7.30;3.73;;;;;;;;;;5131409;27;20478;-62
2023/07/13 03:43:21;;;;;;;10.10;4.37;;;;;;;;;;5129791;27;20484;-62
2023/07/13 03:45:47;;;;;;;9.53;4.20;;;;;;;;;;5134598;27;20449;-62
2023/07/13 03:48:14;;;;;;;9.87;4.20;;;;;;;;;;5134494;27;20442;-62
2023/07/13 03:50:40;;;;;;;6.53;4.40;;;;;;;;;;5133169;27;20981;-62
2023/07/13 03:53:07;;;;;;;10.27;4.43;;;;;;;;;;5136999;27;20452;-62
2023/07/13 03:55:34;;;;;;;10.50;4.00;;;;;;;;;;5141571;27;20565;-63
2023/07/13 03:58:21;;;;;;;5.63;3.60;;;;;;;;;;5136305;27;20513;-63
2023/07/13 04:00:47;;;;;;;10.00;4.53;;;;;;;;;;5131617;27;21073;-63
2023/07/13 04:03:13;;;;;;;9.27;3.93;;;;;;;;;;5142563;27;20456;-62
2023/07/13 04:05:41;;;;;;;9.63;3.43;;;;;;;;;;5138817;27;20450;-62
2023/07/13 04:08:07;;;;;;;6.03;3.20;;;;;;;;;;5137790;27;20954;-61
2023/07/13 04:10:35;;;;;;;6.80;3.90;;;;;;;;;;5135087;27;20515;-61
2023/07/13 04:13:01;;;;;;;8.13;3.47;;;;;;;;;;5142269;27;20480;-61
2023/07/13 04:15:30;;;;;;;6.70;3.77;;;;;;;;;;5134487;27;20449;-62
2023/07/13 04:17:56;;;;;;;6.03;3.30;;;;;;;;;;5141210;27;20483;-62
2023/07/13 04:20:23;;;;;;;14.37;3.37;;;;;;;;;;5140092;27;20957;-64
2023/07/13 04:22:50;;;;;;;7.90;3.50;;;;;;;;;;5133725;27;20460;-62
2023/07/13 04:25:16;;;;;;;7.13;3.03;;;;;;;;;;5125645;27;20451;-61
2023/07/13 04:27:44;;;;;;;4.43;2.97;;;;;;;;;;5140305;27;20528;-61
2023/07/13 04:30:10;;;;;;;6.00;3.20;;;;;;;;;;5140679;27;20486;-62
2023/07/13 04:32:37;;;;;;;7.27;2.67;;;;;;;;;;5135249;27;20495;-61
2023/07/13 04:35:04;;;;;;;6.20;2.63;;;;;;;;;;5130619;27;20496;-63
2023/07/13 04:37:30;;;;;;;10.50;3.57;;;;;;;;;;5132564;27;20484;-62
2023/07/13 04:39:57;;;;;;;9.30;2.80;;;;;;;;;;5141108;27;20518;-63
2023/07/13 04:42:23;;;;;;;7.80;2.50;;;;;;;;;;5133614;27;21033;-62
2023/07/13 04:44:51;;;;;;;7.57;3.50;;;;;;;;;;5135311;27;20521;-62
2023/07/13 04:47:20;;;;;;;10.70;2.93;;;;;;;;;;5133427;27;20496;-61
2023/07/13 04:49:47;;;;;;;9.43;3.00;;;;;;;;;;5131186;27;20445;-61
2023/07/13 04:52:13;;;;;;;11.40;3.37;;;;;;;;;;5138610;27;21057;-62
2023/07/13 04:54:39;;;;;;;6.77;2.77;;;;;;;;;;5134264;27;20561;-61
2023/07/13 04:57:07;;;;;;;7.33;2.40;;;;;;;;;;5134102;27;20512;-61
2023/07/13 04:59:33;;;;;;;10.53;2.70;;;;;;;;;;5132225;27;20469;-62
2023/07/13 05:02:01;;;;;;;7.37;2.47;;;;;;;;;;5121520;27;20493;-61
2023/07/13 05:04:27;;;;;;;6.70;2.33;;;;;;;;;;5123764;27;20470;-62
2023/07/13 05:06:54;;;;;;;10.80;2.50;;;;;;;;;;5135391;27;20533;-61
2023/07/13 05:09:20;;;;;;;7.63;2.20;;;;;;;;;;5142558;27;20487;-61
2023/07/13 05:11:46;;;;;;;6.03;2.73;;;;;;;;;;5139446;27;20868;-61
2023/07/13 05:14:13;;;;;;;9.37;2.07;;;;;;;;;;5122674;27;20507;-62
2023/07/13 05:16:40;;;;;;;8.40;2.43;;;;;;;;;;5141217;27;20485;-62
2023/07/13 05:19:08;;;;;;;6.60;1.83;;;;;;;;;;5136985;27;20472;-66
2023/07/13 05:21:35;;;;;;;6.73;2.57;;;;;;;;;;5137590;27;20557;-61
2023/07/13 05:24:01;;;;;;;6.53;2.73;;;;;;;;;;5122102;27;20564;-61
2023/07/13 05:26:27;;;;;;;5.73;2.40;;;;;;;;;;5129359;27;20510;-61
2023/07/13 05:28:54;;;;;;;5.90;1.83;;;;;;;;;;5137800;27;20453;-62
2023/07/13 05:31:20;;;;;;;9.07;3.00;;;;;;;;;;5140763;27;20468;-62
2023/07/13 05:33:46;;;;;;;6.80;1.77;;;;;;;;;;5131639;27;20491;-62
2023/07/13 05:36:14;;;;;;;6.07;2.83;;;;;;;;;;5128524;27;20526;-62
2023/07/13 05:38:41;;;;;;;7.60;2.43;;;;;;;;;;5131845;27;20497;-62
2023/07/13 05:41:07;;;;;;;4.40;2.03;;;;;;;;;;5120106;27;20485;-62
2023/07/13 05:43:34;;;;;;;6.87;2.23;;;;;;;;;;5134719;27;20485;-62
2023/07/13 05:46:00;;;;;;;5.73;2.57;;;;;;;;;;5126706;27;20530;-62
2023/07/13 05:48:27;;;;;;;6.40;2.40;;;;;;;;;;5138750;27;20472;-62
2023/07/13 05:50:53;;;;;;;12.80;3.03;;;;;;;;;;5132225;27;20974;-62
2023/07/13 05:53:21;;;;;;;7.20;2.43;;;;;;;;;;5130878;27;20457;-62
2023/07/13 05:55:49;;;;;;;6.70;2.30;;;;;;;;;;5131603;27;20449;-62
2023/07/13 05:58:17;;;;;;;3.97;2.10;;;;;;;;;;5128744;27;20454;-62
2023/07/13 06:00:43;;;;;;;9.03;2.43;;;;;;;;;;5141629;27;20464;-62
2023/07/13 06:03:10;;;;;;;8.80;2.20;;;;;;;;;;5124319;28;20506;-62
2023/07/13 06:05:37;;;;;;;7.13;2.30;;;;;;;;;;5132728;28;20469;-62
2023/07/13 06:08:04;;;;;;;8.03;2.30;;;;;;;;;;5145871;27;20619;-62
2023/07/13 06:10:33;;;;;;;8.03;2.80;;;;;;;;;;5134002;27;20477;-62
2023/07/13 06:12:59;;;;;;;4.20;2.10;;;;;;;;;;5133215;28;20536;-62
2023/07/13 06:15:25;;;;;;;8.50;2.20;;;;;;;;;;5139002;27;20480;-61
2023/07/13 06:17:52;;;;;;;6.90;2.57;;;;;;;;;;5136438;27;20988;-62
2023/07/13 06:20:18;;;;;;;5.67;2.00;;;;;;;;;;5140320;27;20444;-61
2023/07/13 06:22:44;;;;;;;8.80;2.63;;;;;;;;;;5130419;27;20520;-62
2023/07/13 06:25:11;;;;;;;7.27;2.17;;;;;;;;;;5141700;27;20507;-61
2023/07/13 06:27:39;;;;;;;7.53;2.30;;;;;;;;;;5132171;28;20463;-61
2023/07/13 06:30:06;;;;;;;7.33;2.63;;;;;;;;;;5137954;27;20483;-61
2023/07/13 06:32:32;;;;;;;5.40;2.10;;;;;;;;;;5150368;27;20460;-62
2023/07/13 06:34:58;;;;;;;10.43;2.50;;;;;;;;;;5124866;27;20548;-62
2023/07/13 06:37:25;;;;;;;6.20;2.63;;;;;;;;;;5139676;27;20476;-62
2023/07/13 06:39:51;;;;;;;7.67;2.73;;;;;;;;;;5129005;27;21072;-62
2023/07/13 06:42:18;;;;;;;10.20;3.00;;;;;;;;;;5131382;27;20485;-62
2023/07/13 06:44:46;;;;;;;6.70;2.90;;;;;;;;;;5135269;27;20453;-61
2023/07/13 06:47:14;;;;;;;8.87;3.40;;;;;;;;;;5135086;27;20528;-61
2023/07/13 06:49:41;;;;;;;9.63;3.57;;;;;;;;;;5133822;27;20474;-62
2023/07/13 06:52:07;;;;;;;8.07;2.60;;;;;;;;;;5141871;27;20537;-62
2023/07/13 06:54:35;;;;;;;5.53;2.67;;;;;;;;;;5141365;27;20556;-61
2023/07/13 06:57:01;;;;;;;8.63;3.27;;;;;;;;;;5135287;27;20562;-61
2023/07/13 06:59:27;;;;;;;9.03;2.73;;;;;;;;;;5142529;27;20477;-62
2023/07/13 07:01:55;;;;;;;6.03;3.20;;;;;;;;;;5138260;27;20478;-62
2023/07/13 07:04:21;;;;;;;8.73;2.60;;;;;;;;;;5132710;27;20992;-62
2023/07/13 07:06:54;;;;;;;10.10;2.43;;;;;;;;;;5133427;27;20449;-62
2023/07/13 07:09:24;;;;;;;7.10;2.53;;;;;;;;;;5145522;27;20461;-62
2023/07/13 07:11:54;;;;;;;6.30;2.73;;;;;;;;;;5129887;27;20457;-62
2023/07/13 07:14:22;;;;;;;8.00;2.80;;;;;;;;;;5134558;27;20953;-62
2023/07/13 07:16:53;;;;;;;9.13;2.97;;;;;;;;;;5127228;27;21106;-62
2023/07/13 07:19:27;;;;;;;5.50;2.97;;;;;;;;;;5145890;27;20445;-62
2023/07/13 07:21:56;;;;;;;7.07;2.67;;;;;;;;;;5127197;27;20492;-62
2023/07/13 07:24:22;;;;;;;8.63;3.17;;;;;;;;;;5134632;27;20488;-62
2023/07/13 07:26:49;;;;;;;8.27;2.87;;;;;;;;;;5142391;27;20449;-62
2023/07/13 07:29:15;;;;;;;6.57;2.83;;;;;;;;;;5133539;27;20517;-62
2023/07/13 07:31:41;;;;;;;6.67;2.80;;;;;;;;;;5140557;27;20484;-62
2023/07/13 07:34:08;;;;;;;9.43;3.00;;;;;;;;;;5140080;27;20532;-62
2023/07/13 07:36:35;;;;;;;6.30;2.40;;;;;;;;;;5140691;27;20589;-62
2023/07/13 07:39:02;;;;;;;7.27;3.07;;;;;;;;;;5141198;27;20544;-62
2023/07/13 07:41:28;;;;;;;6.73;3.03;;;;;;;;;;5131708;27;20552;-62
2023/07/13 07:43:55;;;;;;;9.60;2.30;;;;;;;;;;5144686;27;20540;-62
2023/07/13 07:46:21;;;;;;;5.27;2.40;;;;;;;;;;5144004;27;20450;-62
2023/07/13 07:48:48;;;;;;;8.63;2.90;;;;;;;;;;5141275;27;20521;-62
2023/07/13 07:51:14;;;;;;;8.87;2.70;;;;;;;;;;5135279;27;20453;-62
2023/07/13 07:53:42;;;;;;;7.33;2.90;;;;;;;;;;5122238;27;20511;-62
2023/07/13 07:56:09;;;;;;;5.43;2.97;;;;;;;;;;5123824;27;20517;-62
2023/07/13 07:58:36;;;;;;;5.60;2.77;;;;;;;;;;5122506;27;20473;-62
2023/07/13 08:01:03;;;;;;;6.40;3.37;;;;;;;;;;5137011;27;20609;-62
2023/07/13 08:03:30;;;;;;;7.77;3.23;;;;;;;;;;5136335;27;20458;-62
2023/07/13 08:05:56;;;;;;;4.67;2.50;;;;;;;;;;5134854;27;20930;-62
2023/07/13 08:08:22;;;;;;;8.40;2.90;;;;;;;;;;5134306;27;20594;-62
2023/07/13 08:10:50;;;;;;;6.63;2.60;;;;;;;;;;5139293;27;20517;-62
2023/07/13 08:13:17;;;;;;;6.83;2.63;;;;;;;;;;5138174;27;20457;-62
2023/07/13 08:15:43;;;;;;;8.60;2.70;;;;;;;;;;5140722;27;20470;-62
2023/07/13 08:18:10;;;;;;;5.20;2.60;;;;;;;;;;5151116;27;20553;-62
2023/07/13 08:20:37;;;;;;;7.33;2.50;;;;;;;;;;5137711;27;21044;-62
2023/07/13 08:23:04;;;;;;;5.93;2.67;;;;;;;;;;5144059;27;20505;-62
2023/07/13 08:25:30;;;;;;;8.73;2.80;;;;;;;;;;5135817;27;20478;-62
2023/07/13 08:27:58;;;;;;;7.83;2.60;;;;;;;;;;5138788;27;20509;-62
2023/07/13 08:30:24;;;;;;;4.83;2.30;;;;;;;;;;5137562;27;20473;-62
2023/07/13 08:32:51;;;;;;;5.73;2.33;;;;;;;;;;5132970;27;20511;-61
2023/07/13 08:35:17;;;;;;;5.77;2.30;;;;;;;;;;5120829;27;20466;-62
2023/07/13 08:37:44;;;;;;;5.40;2.60;;;;;;;;;;5132463;27;20496;-62
2023/07/13 08:40:10;;;;;;;6.10;1.90;;;;;;;;;;5135317;27;20470;-62
2023/07/13 08:42:38;;;;;;;4.10;1.97;;;;;;;;;;5144867;27;20532;-62
2023/07/13 08:45:10;;;;;;;5.73;2.00;;;;;;;;;;5140657;27;20453;-62
2023/07/13 08:47:40;;;;;;;7.20;2.90;;;;;;;;;;5140647;27;20469;-62
2023/07/13 08:50:11;;;;;;;6.80;1.83;;;;;;;;;;5134621;27;20930;-62
2023/07/13 08:52:38;;;;;;;6.50;2.00;;;;;;;;;;5132982;27;20488;-62
2023/07/13 08:55:09;;;;;;;5.07;2.10;;;;;;;;;;5128309;27;20476;-62
2023/07/13 08:57:35;;;;;;;7.27;2.57;;;;;;;;;;5137844;27;21059;-62
2023/07/13 09:00:04;;;;;;;4.83;2.20;;;;;;;;;;5145917;27;20452;-62
2023/07/13 09:02:37;;;;;;;6.57;2.53;;;;;;;;;;5135412;27;20553;-63
2023/07/13 09:05:05;;;;;;;8.30;2.40;;;;;;;;;;5131898;27;20517;-62
2023/07/13 09:07:41;;;;;;;6.83;2.87;;;;;;;;;;5132602;27;20764;-62
2023/07/13 09:10:14;;;;;;;4.37;2.53;;;;;;;;;;5135853;27;20437;-63
2023/07/13 09:12:44;;;;;;;8.53;2.57;;;;;;;;;;5137610;27;20477;-62
2023/07/13 09:15:19;;;;;;;5.83;2.27;;;;;;;;;;5140302;27;20456;-62
2023/07/13 09:17:50;;;;;;;4.33;2.47;;;;;;;;;;5136990;27;20528;-61
2023/07/13 09:20:22;;;;;;;5.70;2.60;;;;;;;;;;5127663;27;20469;-61
2023/07/13 09:22:49;;;;;;;5.60;2.37;;;;;;;;;;5127534;27;20454;-62
2023/07/13 09:25:27;;;;;;;5.07;2.50;;;;;;;;;;5131805;27;20518;-61
2023/07/13 09:27:56;;;;;;;8.03;2.90;;;;;;;;;;5137456;27;20445;-62
2023/07/13 09:30:25;;;;;;;8.20;2.70;;;;;;;;;;5139552;27;20520;-61
2023/07/13 09:32:54;;;;;;;6.73;3.40;;;;;;;;;;5128174;27;20491;-61
2023/07/13 09:35:22;;;;;;;4.60;2.97;;;;;;;;;;5135986;27;20457;-61
2023/07/13 09:37:49;;;;;;;5.00;2.63;;;;;;;;;;5139421;27;20488;-61
2023/07/13 09:40:18;;;;;;;4.73;2.70;;;;;;;;;;5139595;27;20556;-62
2023/07/13 09:42:44;;;;;;;5.93;2.83;;;;;;;;;;5145432;27;20899;-61
2023/07/13 09:45:10;;;;;;;4.60;2.60;;;;;;;;;;5133722;27;20508;-61
2023/07/13 09:47:39;;;;;;;4.00;2.40;;;;;;;;;;5146393;27;20552;-62
2023/07/13 09:50:10;;;;;;;6.73;2.80;;;;;;;;;;5140457;27;20851;-61
2023/07/13 09:52:41;;;;;;;4.70;2.20;;;;;;;;;;5132976;27;20484;-62
2023/07/13 09:55:23;;;;;;;5.20;2.80;;;;;;;;;;5139435;27;20466;-61
2023/07/13 09:57:51;;;;;;;5.57;2.17;;;;;;;;;;5137055;27;20567;-62
2023/07/13 10:00:21;;;;;;;6.83;2.27;;;;;;;;;;5132669;27;20446;-62
2023/07/13 10:02:58;;;;;;;5.40;2.60;;;;;;;;;;5139915;27;20485;-62
2023/07/13 10:05:26;;;;;;;5.20;1.77;;;;;;;;;;5128352;27;20532;-61
2023/07/13 10:07:52;;;;;;;3.37;1.70;;;;;;;;;;5133325;27;20453;-61
2023/07/13 10:10:20;;;;;;;4.83;1.87;;;;;;;;;;5142950;27;20472;-61
2023/07/13 10:12:47;;;;;;;4.13;1.83;;;;;;;;;;5148409;27;20449;-62
2023/07/13 10:15:15;;;;;;;5.03;1.70;;;;;;;;;;5131140;27;20445;-61
2023/07/13 10:17:42;;;;;;;4.43;1.90;;;;;;;;;;5135715;28;20549;-62
2023/07/13 10:20:12;;;;;;;4.73;1.90;;;;;;;;;;5134071;27;20498;-61
2023/07/13 10:22:43;;;;;;;5.23;2.20;;;;;;;;;;5145713;27;20460;-61
2023/07/13 10:25:15;;;;;;;6.07;1.90;;;;;;;;;;5141760;27;20962;-62
2023/07/13 10:27:42;;;;;;;4.60;2.27;;;;;;;;;;5119390;28;20442;-61
2023/07/13 10:30:13;;;;;;;3.87;2.10;;;;;;;;;;5138951;27;21319;-61
2023/07/13 10:32:39;;;;;;;3.40;2.10;;;;;;;;;;5130887;28;20468;-62
2023/07/13 10:35:07;;;;;;;5.90;2.20;;;;;;;;;;5135165;28;20553;-61
2023/07/13 10:37:37;;;;;;;5.67;2.60;;;;;;;;;;5134749;27;20469;-62
2023/07/13 10:40:06;;;;;;;6.67;2.43;;;;;;;;;;5128404;28;20538;-62
2023/07/13 10:42:34;;;;;;;4.00;2.60;;;;;;;;;;5140291;27;20989;-62
2023/07/13 10:45:00;;;;;;;4.50;2.70;;;;;;;;;;5124727;28;20573;-62
2023/07/13 10:47:27;;;;;;;6.13;2.93;;;;;;;;;;5132312;28;20465;-62
2023/07/13 10:49:55;;;;;;;3.60;2.57;;;;;;;;;;5139099;28;20441;-62
2023/07/13 10:52:40;;;;;;;4.10;2.33;;;;;;;;;;5139700;27;20464;-63
2023/07/13 10:55:31;;;;;;;7.07;3.20;;;;;;;;;;5140838;27;20452;-62
2023/07/13 10:58:00;;;;;;;5.13;3.00;;;;;;;;;;5134726;27;20532;-62
2023/07/13 11:00:27;;;;;;;8.13;3.03;;;;;;;;;;5139122;28;20473;-60
2023/07/13 11:02:57;;;;;;;5.93;3.37;;;;;;;;;;5138967;27;20519;-62
2023/07/13 11:05:27;;;;;;;3.33;2.97;;;;;;;;;;5134793;27;20445;-62
2023/07/13 11:07:56;;;;;;;5.33;2.73;;;;;;;;;;5132334;28;20624;-62
2023/07/13 11:10:37;;;;;;;7.80;3.70;;;;;;;;;;5138180;27;20434;-62
2023/07/13 11:13:05;;;;;;;8.10;3.90;;;;;;;;;;5150279;27;20539;-62
2023/07/13 11:15:33;;;;;;;5.67;4.07;;;;;;;;;;5129080;27;20500;-62
2023/07/13 11:18:02;;;;;;;6.77;4.20;;;;;;;;;;5131007;27;20500;-62
2023/07/13 11:20:34;;;;;;;5.83;4.00;;;;;;;;;;5153929;27;20476;-62
2023/07/13 11:23:21;;;;;;;6.73;4.20;;;;;;;;;;5139652;27;20457;-60
2023/07/13 11:25:48;;;;;;;4.00;3.60;;;;;;;;;;5141170;27;20437;-60
2023/07/13 11:28:22;;;;;;;6.70;3.97;;;;;;;;;;5138546;27;20445;-60
2023/07/13 11:30:49;;;;;;;6.60;4.00;;;;;;;;;;5140118;27;20557;-62
2023/07/13 11:33:17;;;;;;;6.70;4.33;;;;;;;;;;5131117;27;20474;-62
2023/07/13 11:35:48;;;;;;;8.00;4.60;;;;;;;;;;5141364;27;20489;-62
2023/07/13 11:38:16;;;;;;;10.77;5.73;;;;;;;;;;5147305;27;20488;-61
2023/07/13 11:40:44;;;;;;;5.53;4.00;;;;;;;;;;5130367;27;20482;-61
2023/07/13 11:43:13;;;;;;;5.60;4.57;;;;;;;;;;5140020;27;20484;-61
2023/07/13 11:45:41;;;;;;;6.00;4.40;;;;;;;;;;5145223;27;20506;-61
2023/07/13 11:48:18;;;;;;;7.80;4.50;;;;;;;;;;5131326;27;20453;-62
2023/07/13 11:50:50;;;;;;;7.67;4.63;;;;;;;;;;5143861;27;20537;-62
2023/07/13 11:53:17;;;;;;;4.37;3.87;;;;;;;;;;5138135;27;20547;-62
2023/07/13 11:55:43;;;;;;;6.77;3.50;;;;;;;;;;5138391;27;20461;-61
2023/07/13 11:58:10;;;;;;;8.47;4.27;;;;;;;;;;5140744;27;20481;-60
2023/07/13 12:00:40;;;;;;;7.60;4.10;;;;;;;;;;5136252;27;20535;-60
2023/07/13 12:03:09;;;;;;;6.20;3.40;;;;;;;;;;5139911;27;20873;-60
2023/07/13 12:05:36;;;;;;;4.87;2.83;;;;;;;;;;5141007;27;20487;-61
2023/07/13 12:08:11;;;;;;;5.23;3.40;;;;;;;;;;5150219;27;20449;-60
2023/07/13 12:10:37;;;;;;;4.70;2.93;;;;;;;;;;5160135;27;20458;-60
2023/07/13 12:13:04;;;;;;;5.53;3.00;;;;;;;;;;5136895;27;20497;-60
2023/07/13 12:15:35;;;;;;;6.47;3.67;;;;;;;;;;5132527;27;20505;-60
2023/07/13 12:18:01;;;;;;;3.57;2.80;;;;;;;;;;5132431;27;21065;-60
2023/07/13 12:20:34;;;;;;;6.80;2.63;;;;;;;;;;5134389;27;20457;-60
2023/07/13 12:23:02;;;;;;;5.23;3.43;;;;;;;;;;5129890;27;20896;-60
2023/07/13 12:25:29;;;;;;;6.93;4.23;;;;;;;;;;5134270;27;20456;-60
2023/07/13 12:27:56;;;;;;;7.40;4.27;;;;;;;;;;5139171;27;20540;-60
2023/07/13 12:30:28;;;;;;;8.10;4.53;;;;;;;;;;5134968;27;20513;-62
2023/07/13 12:32:58;;;;;;;8.43;3.80;;;;;;;;;;5135070;27;20985;-62
2023/07/13 12:35:25;;;;;;;6.03;4.03;;;;;;;;;;5131218;27;20454;-63
2023/07/13 12:37:52;;;;;;;5.47;3.10;;;;;;;;;;5132276;27;20508;-59
2023/07/13 12:40:22;;;;;;;5.20;3.27;;;;;;;;;;5125666;27;20508;-62
2023/07/13 12:42:50;;;;;;;4.27;3.23;;;;;;;;;;5138609;27;20480;-62
2023/07/13 12:45:18;;;;;;;3.47;3.17;;;;;;;;;;5130578;27;20481;-62
2023/07/13 12:47:48;;;;;;;4.50;3.00;;;;;;;;;;5128306;27;20454;-62
2023/07/13 12:50:15;;;;;;;4.43;2.93;;;;;;;;;;5136905;27;20496;-62
2023/07/13 12:52:43;;;;;;;4.77;3.33;;;;;;;;;;5138684;27;20457;-62
2023/07/13 12:55:15;;;;;;;4.40;3.30;;;;;;;;;;5132484;27;20449;-63
2023/07/13 12:57:44;;;;;;;5.40;3.47;;;;;;;;;;5140096;27;20456;-63
2023/07/13 13:00:20;;;;;;;5.60;3.80;;;;;;;;;;5139663;27;20938;-63
2023/07/13 13:02:50;;;;;;;6.73;2.93;;;;;;;;;;5132477;27;20458;-63
2023/07/13 13:05:16;;;;;;;5.23;3.37;;;;;;;;;;5134780;27;20457;-62
2023/07/13 13:07:46;;;;;;;4.73;3.20;;;;;;;;;;5136330;27;20484;-62
2023/07/13 13:10:14;;;;;;;5.90;3.00;;;;;;;;;;5126414;27;21001;-62
2023/07/13 13:12:42;;;;;;;6.03;3.10;;;;;;;;;;5132209;27;20552;-61
2023/07/13 13:15:09;;;;;;;8.53;3.40;;;;;;;;;;5136044;27;20457;-61
2023/07/13 13:17:35;;;;;;;4.27;3.50;;;;;;;;;;5131598;27;20446;-61
2023/07/13 13:20:02;;;;;;;3.93;2.77;;;;;;;;;;5135152;27;20924;-61
2023/07/13 13:22:28;;;;;;;4.23;2.90;;;;;;;;;;5137540;27;20457;-62
2023/07/13 13:24:54;;;;;;;5.30;3.77;;;;;;;;;;5135527;27;20465;-61
2023/07/13 13:27:23;;;;;;;3.40;2.70;;;;;;;;;;5133293;27;20449;-62
2023/07/13 13:29:51;;;;;;;3.80;2.30;;;;;;;;;;5122350;27;20465;-63
2023/07/13 13:32:18;;;;;;;3.43;2.30;;;;;;;;;;5136060;27;20453;-61
2023/07/13 13:34:45;;;;;;;4.17;2.50;;;;;;;;;;5134860;27;20541;-62
2023/07/13 13:37:17;;;;;;;4.60;2.10;;;;;;;;;;5130936;27;20476;-61
2023/07/13 13:39:44;;;;;;;9.37;2.40;;;;;;;;;;5133477;27;20493;-62
2023/07/13 13:42:11;;;;;;;5.20;2.50;;;;;;;;;;5132454;27;20470;-61
2023/07/13 13:44:42;;;;;;;3.90;2.60;;;;;;;;;;5131233;27;21152;-61
2023/07/13 13:47:18;;;;;;;5.93;3.13;;;;;;;;;;5134514;27;20460;-61
2023/07/13 13:49:44;;;;;;;6.90;3.20;;;;;;;;;;5139058;27;20531;-61
2023/07/13 13:52:11;;;;;;;7.43;4.10;;;;;;;;;;5136789;27;20545;-61
2023/07/13 13:54:37;;;;;;;5.50;3.37;;;;;;;;;;5132307;27;20464;-62
2023/07/13 13:57:04;;;;;;;6.60;3.90;;;;;;;;;;5134637;27;20509;-61
2023/07/13 13:59:32;;;;;;;8.03;4.23;;;;;;;;;;5133789;27;20510;-60
2023/07/13 14:02:00;;;;;;;7.07;4.80;;;;;;;;;;5133019;27;20463;-61
2023/07/13 14:04:27;;;;;;;9.83;4.93;;;;;;;;;;5133027;28;20457;-61
2023/07/13 14:06:53;;;;;;;6.50;4.47;;;;;;;;;;5139443;27;20453;-61
2023/07/13 14:09:20;;;;;;;8.17;4.73;;;;;;;;;;5131349;28;20507;-61
2023/07/13 14:11:47;;;;;;;8.20;4.73;;;;;;;;;;5129145;28;20477;-61
2023/07/13 14:14:16;;;;;;;5.50;4.13;;;;;;;;;;5131842;28;20468;-62
2023/07/13 14:16:43;;;;;;;7.77;4.57;;;;;;;;;;5130980;28;20480;-61
2023/07/13 14:19:13;;;;;;;6.53;3.93;;;;;;;;;;5126581;28;20475;-61
2023/07/13 14:21:40;;;;;;;8.13;4.37;;;;;;;;;;5123778;27;20952;-62
2023/07/13 14:24:07;;;;;;;9.30;4.10;;;;;;;;;;5132156;27;20477;-61
2023/07/13 14:26:36;;;;;;;4.87;3.60;;;;;;;;;;5135068;27;20461;-62
2023/07/13 14:29:03;;;;;;;6.47;3.80;;;;;;;;;;5119989;28;20465;-62
2023/07/13 14:31:29;;;;;;;8.30;4.57;;;;;;;;;;5141415;27;20526;-62
2023/07/13 14:33:56;;;;;;;6.70;4.00;;;;;;;;;;5131926;27;21092;-61
2023/07/13 14:36:26;;;;;;;5.97;3.90;;;;;;;;;;5132153;27;20481;-62
2023/07/13 14:38:53;;;;;;;6.33;4.40;;;;;;;;;;5131082;28;20553;-62
2023/07/13 14:41:20;;;;;;;4.90;4.23;;;;;;;;;;5128419;28;20871;-62
2023/07/13 14:43:48;;;;;;;6.50;4.60;;;;;;;;;;5137779;28;20524;-61
2023/07/13 14:46:19;;;;;;;6.70;4.20;;;;;;;;;;5137418;28;20446;-62